Time;durP1;ratioP1;P1;durP2;ratioP2;P2;SDS_P1;SDS_P2;PMS_P1;PMS_P2;Temp;Humidity;BMP_temperature;BMP_pressure;BME280_temperature;BME280_humidity;BME280_pressure;Samples;Min_cycle;Max_cycle;Signal;HPM_P1;HPM_P2
2022/09/03 00:00:52;;;;;;;2.23;2.00;;;19.00;74.90;;;;;;6211709;23;20378;-86
2022/09/03 00:03:24;;;;;;;4.40;1.80;;;19.00;75.10;;;;;;6197622;23;20799;-87
2022/09/03 00:06:03;;;;;;;2.80;2.40;;;19.00;75.30;;;;;;6188074;23;20402;-87
2022/09/03 00:08:34;;;;;;;4.07;2.37;;;19.10;75.20;;;;;;6207286;23;20394;-87
2022/09/03 00:11:05;;;;;;;5.33;2.40;;;19.10;74.80;;;;;;6195227;23;20395;-88
2022/09/03 00:13:36;;;;;;;3.80;2.50;;;19.10;74.70;;;;;;6186446;23;20441;-88
2022/09/03 00:16:08;;;;;;;3.37;2.40;;;19.00;75.20;;;;;;6186542;23;20862;-87
2022/09/03 00:18:41;;;;;;;5.93;2.40;;;19.10;75.30;;;;;;6186958;23;20462;-88
2022/09/03 00:21:12;;;;;;;7.13;3.20;;;19.10;75.10;;;;;;6187229;23;20854;-87
2022/09/03 00:23:42;;;;;;;4.33;2.33;;;19.20;75.00;;;;;;6187118;23;20500;-89
2022/09/03 00:26:21;;;;;;;2.50;2.20;;;19.20;74.60;;;;;;6187553;23;20407;-87
2022/09/03 00:28:54;;;;;;;2.63;2.20;;;19.20;74.50;;;;;;6187457;23;20421;-87
2022/09/03 00:31:26;;;;;;;4.10;2.40;;;19.20;74.30;;;;;;6189414;23;20394;-87
2022/09/03 00:33:57;;;;;;;3.30;2.20;;;19.30;74.40;;;;;;6188553;23;20426;-88
2022/09/03 00:36:31;;;;;;;2.77;2.50;;;19.30;74.40;;;;;;6187023;23;20394;-88
2022/09/03 00:38:58;;;;;;;7.17;2.87;;;19.30;74.30;;;;;;6187296;23;20422;-88
2022/09/03 00:41:36;;;;;;;3.20;2.10;;;19.30;74.10;;;;;;6187254;23;20418;-87
2022/09/03 00:44:34;;;;;;;3.37;2.50;;;19.40;74.30;;;;;;6201064;23;20445;-87
2022/09/03 00:47:09;;;;;;;4.27;2.90;;;19.40;74.40;;;;;;6206800;23;20414;-85
2022/09/03 00:49:46;;;;;;;4.10;2.20;;;19.40;74.50;;;;;;6201275;23;20363;-87
2022/09/03 00:52:29;;;;;;;4.37;2.43;;;19.40;74.60;;;;;;6187907;23;20398;-88
2022/09/03 00:55:05;;;;;;;5.10;2.73;;;19.40;74.20;;;;;;6193607;23;20391;-87
2022/09/03 00:57:46;;;;;;;2.50;2.30;;;19.40;74.50;;;;;;6204213;23;20377;-86
2022/09/03 01:00:15;;;;;;;5.90;2.50;;;19.30;74.70;;;;;;6207259;23;20418;-87
2022/09/03 01:02:57;;;;;;;3.33;2.50;;;19.30;75.00;;;;;;6189716;23;20411;-87
2022/09/03 01:05:41;;;;;;;3.00;2.37;;;19.30;74.90;;;;;;6188430;23;20405;-88
2022/09/03 01:08:25;;;;;;;2.87;2.50;;;19.30;75.30;;;;;;6187865;23;20382;-89
2022/09/03 01:10:57;;;;;;;5.37;2.83;;;19.30;76.30;;;;;;6187311;23;20386;-88
2022/09/03 01:13:31;;;;;;;2.70;2.33;;;19.30;77.20;;;;;;6187716;23;20472;-88
2022/09/03 01:16:09;;;;;;;4.37;2.53;;;19.30;77.30;;;;;;6187896;23;20425;-88
2022/09/03 01:18:44;;;;;;;3.93;3.10;;;19.30;77.20;;;;;;6188953;23;20423;-87
2022/09/03 01:21:33;;;;;;;4.07;2.83;;;19.30;77.20;;;;;;6203481;23;20418;-87
2022/09/03 01:24:30;;;;;;;3.70;2.50;;;19.30;77.50;;;;;;6204687;23;20426;-87
2022/09/03 01:27:09;;;;;;;5.40;3.00;;;19.30;77.70;;;;;;6212306;23;20405;-86
2022/09/03 01:29:41;;;;;;;3.00;2.33;;;19.30;77.80;;;;;;6191640;23;20449;-87
2022/09/03 01:32:16;;;;;;;13.77;3.23;;;19.30;77.70;;;;;;6189049;23;20390;-90
2022/09/03 01:34:54;;;;;;;4.50;4.10;;;19.40;77.70;;;;;;6188389;23;20402;-88
2022/09/03 01:37:32;;;;;;;3.23;2.90;;;19.40;77.40;;;;;;6188543;23;20763;-88
2022/09/03 01:40:09;;;;;;;2.30;2.10;;;19.40;77.00;;;;;;6188337;23;20991;-88
2022/09/03 01:42:47;;;;;;;6.00;2.80;;;19.40;77.30;;;;;;6188129;23;20772;-88
2022/09/03 01:45:43;;;;;;;4.47;3.17;;;19.40;77.30;;;;;;6205594;23;20374;-88
2022/09/03 01:48:37;;;;;;;2.83;2.13;;;19.40;77.80;;;;;;6203003;23;20387;-88
2022/09/03 01:51:12;;;;;;;5.57;2.90;;;19.30;78.30;;;;;;6212985;23;20406;-87
2022/09/03 01:53:58;;;;;;;3.77;2.60;;;19.30;78.60;;;;;;6209633;23;20525;-87
2022/09/03 01:56:37;;;;;;;3.27;2.63;;;19.40;78.50;;;;;;6190020;23;20476;-87
2022/09/03 01:59:11;;;;;;;3.93;3.30;;;19.40;78.50;;;;;;6190617;23;20449;-87
2022/09/03 02:01:45;;;;;;;4.97;4.17;;;19.40;78.70;;;;;;6190645;23;20389;-88
2022/09/03 02:04:19;;;;;;;6.80;3.40;;;19.50;78.80;;;;;;6189614;23;20426;-87
2022/09/03 02:06:47;;;;;;;4.10;3.03;;;19.50;78.60;;;;;;6201975;23;20410;-87
2022/09/03 02:09:14;;;;;;;5.43;2.63;;;19.50;78.50;;;;;;6211974;23;20398;-85
2022/09/03 02:11:42;;;;;;;6.70;2.70;;;19.50;79.20;;;;;;6213810;23;20414;-85
2022/09/03 02:14:09;;;;;;;3.60;3.07;;;19.50;78.40;;;;;;6213100;23;20424;-85
2022/09/03 02:16:37;;;;;;;5.83;3.30;;;19.50;78.60;;;;;;6212472;23;20474;-87
2022/09/03 02:19:10;;;;;;;3.60;2.80;;;19.50;78.90;;;;;;6191650;23;20446;-88
2022/09/03 02:21:40;;;;;;;6.00;3.00;;;19.40;79.30;;;;;;6189202;23;20410;-88
2022/09/03 02:24:08;;;;;;;7.27;3.40;;;19.40;79.70;;;;;;6187921;23;20454;-87
2022/09/03 02:26:35;;;;;;;3.63;2.70;;;19.40;79.90;;;;;;6189452;23;20406;-87
2022/09/03 02:29:04;;;;;;;5.50;3.40;;;19.40;79.80;;;;;;6187918;23;20417;-87
2022/09/03 02:31:31;;;;;;;3.10;2.80;;;19.50;79.70;;;;;;6191393;23;20410;-90
2022/09/03 02:33:58;;;;;;;3.47;2.80;;;19.50;79.80;;;;;;6203172;23;20422;-87
2022/09/03 02:36:30;;;;;;;2.87;2.57;;;19.50;79.70;;;;;;6212821;23;20399;-88
2022/09/03 02:38:57;;;;;;;3.30;2.80;;;19.50;79.60;;;;;;6212204;23;20418;-87
2022/09/03 02:41:26;;;;;;;4.03;2.60;;;19.40;79.80;;;;;;6192883;23;20413;-87
2022/09/03 02:43:58;;;;;;;3.33;2.80;;;19.50;80.20;;;;;;6188863;23;20419;-87
2022/09/03 02:46:29;;;;;;;5.37;2.53;;;19.40;80.10;;;;;;6190845;23;20398;-87
2022/09/03 02:48:55;;;;;;;2.80;2.17;;;19.30;80.60;;;;;;6189114;23;20392;-87
2022/09/03 02:51:22;;;;;;;5.30;3.10;;;19.30;80.80;;;;;;6194504;23;20924;-86
2022/09/03 02:53:50;;;;;;;6.63;2.83;;;19.20;81.00;;;;;;6193675;23;20913;-89
2022/09/03 02:56:17;;;;;;;3.53;3.13;;;19.10;81.00;;;;;;6189400;23;20407;-88
2022/09/03 02:58:44;;;;;;;4.00;2.70;;;19.00;81.30;;;;;;6205923;23;20461;-85
2022/09/03 03:01:11;;;;;;;3.37;2.27;;;18.90;81.80;;;;;;6208532;23;20405;-88
2022/09/03 03:03:37;;;;;;;2.40;2.20;;;18.90;82.60;;;;;;6187642;23;20929;-89
2022/09/03 03:06:06;;;;;;;3.80;2.77;;;18.80;83.10;;;;;;6187872;23;20402;-87
2022/09/03 03:08:33;;;;;;;4.17;2.93;;;18.70;83.20;;;;;;6188043;23;20407;-88
2022/09/03 03:11:02;;;;;;;4.70;2.73;;;18.60;83.60;;;;;;6187309;23;20395;-88
2022/09/03 03:13:31;;;;;;;3.47;2.90;;;18.60;84.20;;;;;;6189045;23;20410;-87
2022/09/03 03:15:58;;;;;;;4.20;2.73;;;18.60;84.20;;;;;;6194280;23;20406;-88
2022/09/03 03:18:25;;;;;;;4.90;2.73;;;18.70;84.30;;;;;;6210947;23;20410;-87
2022/09/03 03:20:53;;;;;;;4.80;2.87;;;18.70;84.30;;;;;;6192898;23;20773;-88
2022/09/03 03:23:20;;;;;;;4.90;3.00;;;18.80;84.40;;;;;;6187031;23;20461;-88
2022/09/03 03:25:47;;;;;;;5.30;2.50;;;18.80;84.70;;;;;;6186774;23;20410;-87
2022/09/03 03:28:17;;;;;;;4.83;3.37;;;18.80;85.20;;;;;;6186648;23;20426;-87
2022/09/03 03:30:47;;;;;;;3.30;3.00;;;18.80;85.50;;;;;;6186999;23;20446;-88
2022/09/03 03:33:13;;;;;;;4.77;3.10;;;18.80;85.70;;;;;;6188080;23;20430;-88
2022/09/03 03:35:41;;;;;;;5.63;3.20;;;18.80;86.00;;;;;;6189544;23;20413;-87
2022/09/03 03:38:08;;;;;;;3.33;2.73;;;18.70;86.20;;;;;;6190413;23;20472;-87
2022/09/03 03:40:35;;;;;;;5.23;2.97;;;18.70;87.00;;;;;;6188540;23;20453;-88
2022/09/03 03:43:02;;;;;;;4.53;4.07;;;18.70;87.40;;;;;;6188160;23;20482;-86
2022/09/03 03:45:30;;;;;;;5.90;2.27;;;18.60;87.40;;;;;;6187663;23;20395;-86
2022/09/03 03:47:58;;;;;;;7.37;3.23;;;18.60;87.20;;;;;;6187162;23;20900;-86
2022/09/03 03:50:25;;;;;;;4.50;3.00;;;18.60;87.30;;;;;;6193628;23;20409;-86
2022/09/03 03:52:51;;;;;;;4.47;2.77;;;18.60;87.50;;;;;;6212802;23;20416;-87
2022/09/03 03:55:18;;;;;;;3.27;2.97;;;18.60;87.20;;;;;;6208298;23;20428;-87
2022/09/03 03:57:45;;;;;;;4.27;3.00;;;18.60;88.00;;;;;;6197426;23;20414;-87
2022/09/03 04:00:13;;;;;;;3.97;3.30;;;18.60;87.90;;;;;;6191468;23;20450;-86
2022/09/03 04:02:41;;;;;;;4.17;3.20;;;18.60;88.30;;;;;;6188784;23;20488;-88
2022/09/03 04:05:09;;;;;;;4.27;3.20;;;18.60;89.30;;;;;;6188393;23;20413;-87
2022/09/03 04:07:35;;;;;;;3.40;3.10;;;18.60;89.40;;;;;;6190622;23;20414;-88
2022/09/03 04:10:02;;;;;;;295.73;262.50;;;18.60;89.90;;;;;;6189175;23;20410;-87
2022/09/03 04:12:29;;;;;;;5.03;2.90;;;18.60;90.10;;;;;;6195190;23;20434;-86
2022/09/03 04:14:55;;;;;;;4.37;3.20;;;18.60;90.10;;;;;;6189558;23;20406;-86
2022/09/03 04:17:22;;;;;;;4.27;3.50;;;18.60;89.90;;;;;;6186265;23;20452;-87
2022/09/03 04:19:50;;;;;;;4.37;3.27;;;18.60;90.10;;;;;;6189764;23;20444;-87
2022/09/03 04:22:17;;;;;;;4.23;3.17;;;18.60;90.20;;;;;;6199422;23;20394;-87
2022/09/03 04:24:44;;;;;;;10.43;3.27;;;18.60;90.20;;;;;;6208051;23;20466;-86
2022/09/03 04:27:11;;;;;;;3.73;2.93;;;18.50;90.30;;;;;;6203759;23;20407;-87
2022/09/03 04:29:37;;;;;;;4.30;2.70;;;18.50;90.50;;;;;;6196896;23;20421;-87
2022/09/03 04:34:50;;;;;;;3.63;3.33;;;18.40;90.80;;;;;;6195689;23;20908;-87
2022/09/03 04:37:18;;;;;;;3.90;3.27;;;18.40;90.70;;;;;;6164850;23;20455;-91
2022/09/03 04:39:45;;;;;;;3.50;2.50;;;18.40;90.90;;;;;;6153880;23;20834;-91
2022/09/03 04:42:12;;;;;;;3.90;2.70;;;18.30;91.40;;;;;;6155116;23;20623;-91
2022/09/03 04:44:39;;;;;;;6.43;2.90;;;18.30;91.50;;;;;;6155073;23;20407;-90
2022/09/03 04:47:06;;;;;;;3.63;3.20;;;18.40;91.50;;;;;;6169267;23;20954;-91
2022/09/03 04:49:33;;;;;;;4.07;3.27;;;18.30;91.50;;;;;;6182114;23;20395;-92
2022/09/03 04:52:02;;;;;;;3.47;2.80;;;18.30;91.50;;;;;;6166405;23;20441;-91
2022/09/03 04:54:28;;;;;;;3.83;2.77;;;18.30;91.40;;;;;;6159712;23;20494;-90
2022/09/03 04:56:55;;;;;;;3.97;3.50;;;18.20;91.90;;;;;;6162429;23;20434;-91
2022/09/03 04:59:22;;;;;;;4.13;3.33;;;18.20;92.20;;;;;;6158194;23;20969;-91
2022/09/03 05:01:51;;;;;;;2.87;2.57;;;18.20;92.30;;;;;;6156589;23;20410;-91
2022/09/03 05:04:18;;;;;;;3.73;2.93;;;18.20;92.80;;;;;;6156717;23;20454;-90
2022/09/03 05:06:44;;;;;;;3.80;2.87;;;18.30;92.80;;;;;;6156449;23;20522;-91
2022/09/03 05:09:12;;;;;;;4.73;2.87;;;18.30;92.30;;;;;;6156660;23;20414;-91
2022/09/03 05:11:39;;;;;;;3.50;3.13;;;18.40;92.50;;;;;;6156393;23;20403;-91
2022/09/03 05:14:10;;;;;;;4.90;3.10;;;18.40;92.60;;;;;;6156381;23;20449;-91
2022/09/03 05:16:37;;;;;;;3.60;3.13;;;18.40;92.60;;;;;;6156676;23;20513;-92
2022/09/03 05:19:06;;;;;;;3.73;2.23;;;18.50;92.30;;;;;;6155414;23;20435;-91
2022/09/03 05:21:35;;;;;;;4.73;3.53;;;18.40;92.40;;;;;;6156244;23;20403;-91
2022/09/03 05:24:02;;;;;;;6.63;2.70;;;18.50;92.70;;;;;;6156532;23;20808;-91
2022/09/03 05:26:32;;;;;;;3.47;2.97;;;18.50;92.50;;;;;;6156565;23;20427;-89
2022/09/03 05:29:00;;;;;;;3.83;3.03;;;18.50;92.60;;;;;;6157911;23;20730;-90
2022/09/03 05:31:30;;;;;;;3.63;3.00;;;18.60;92.60;;;;;;6157233;23;20410;-90
2022/09/03 05:33:59;;;;;;;5.20;2.60;;;18.80;92.30;;;;;;6163673;23;20411;-90
2022/09/03 05:36:28;;;;;;;4.50;3.27;;;18.90;92.00;;;;;;6183556;23;20423;-91
2022/09/03 05:38:55;;;;;;;3.33;2.90;;;19.00;91.60;;;;;;6180682;23;20405;-90
2022/09/03 05:41:23;;;;;;;5.43;3.23;;;19.10;91.40;;;;;;6156549;23;20403;-90
2022/09/03 05:43:54;;;;;;;3.57;2.60;;;19.20;91.10;;;;;;6156144;23;20406;-90
2022/09/03 05:46:21;;;;;;;3.93;2.90;;;19.20;91.20;;;;;;6156812;23;20745;-90
2022/09/03 05:48:48;;;;;;;3.17;2.80;;;19.20;91.00;;;;;;6183566;23;20395;-90
2022/09/03 05:51:16;;;;;;;4.87;2.90;;;19.10;91.10;;;;;;6181667;23;20453;-89
2022/09/03 05:53:44;;;;;;;3.90;2.70;;;19.10;91.40;;;;;;6172110;23;20407;-90
2022/09/03 05:56:13;;;;;;;3.40;2.63;;;19.10;91.30;;;;;;6157515;23;20438;-90
2022/09/03 05:58:43;;;;;;;4.30;2.90;;;19.10;91.40;;;;;;6156520;23;20419;-90
2022/09/03 06:01:13;;;;;;;5.57;2.83;;;19.10;91.50;;;;;;6156913;23;20493;-90
2022/09/03 06:03:39;;;;;;;3.53;3.17;;;19.20;91.50;;;;;;6157245;23;20415;-90
2022/09/03 06:06:07;;;;;;;2.90;2.60;;;19.30;91.20;;;;;;6179411;23;20412;-91
2022/09/03 06:08:34;;;;;;;3.40;3.10;;;19.40;91.10;;;;;;6180049;23;20419;-90
2022/09/03 06:11:03;;;;;;;6.60;3.50;;;19.40;91.30;;;;;;6171637;23;20399;-91
2022/09/03 06:13:30;;;;;;;3.30;2.90;;;19.40;91.30;;;;;;6158839;23;20425;-90
2022/09/03 06:15:57;;;;;;;4.27;3.03;;;19.40;91.20;;;;;;6158145;23;20442;-90
2022/09/03 06:18:25;;;;;;;4.00;3.67;;;19.30;91.20;;;;;;6156358;23;20466;-90
2022/09/03 06:20:56;;;;;;;5.00;2.73;;;19.30;91.20;;;;;;6157241;23;20435;-90
2022/09/03 06:23:22;;;;;;;4.63;4.07;;;19.30;91.50;;;;;;6156276;23;20412;-89
2022/09/03 06:26:00;;;;;;;6.63;3.40;;;19.30;91.70;;;;;;6155740;23;20770;-90
2022/09/03 06:28:27;;;;;;;6.23;4.30;;;19.20;91.90;;;;;;6157138;23;20483;-90
2022/09/03 06:30:54;;;;;;;2.60;2.40;;;19.20;92.00;;;;;;6156346;23;20407;-90
2022/09/03 06:33:23;;;;;;;3.40;3.10;;;19.30;92.00;;;;;;6156382;23;20423;-90
2022/09/03 06:35:56;;;;;;;5.03;3.00;;;19.30;92.00;;;;;;6156308;23;20411;-90
2022/09/03 06:38:23;;;;;;;4.43;4.03;;;19.40;92.00;;;;;;6173139;23;20419;-90
2022/09/03 06:40:53;;;;;;;3.77;3.47;;;19.60;91.80;;;;;;6176209;23;20455;-90
2022/09/03 06:43:19;;;;;;;3.57;3.27;;;19.60;91.50;;;;;;6157421;23;20891;-90
2022/09/03 06:45:53;;;;;;;3.60;2.57;;;19.60;91.70;;;;;;6156395;23;20408;-90
2022/09/03 06:48:20;;;;;;;3.63;3.23;;;19.60;91.70;;;;;;6157068;23;20871;-91
2022/09/03 06:50:55;;;;;;;5.43;3.17;;;19.60;91.80;;;;;;6157651;23;20418;-90
2022/09/03 06:53:24;;;;;;;5.13;3.33;;;19.70;91.90;;;;;;6156921;23;20442;-90
2022/09/03 06:55:55;;;;;;;3.70;3.27;;;19.70;92.00;;;;;;6155604;23;20483;-90
2022/09/03 06:58:22;;;;;;;4.40;3.10;;;19.70;92.10;;;;;;6157441;23;20406;-90
2022/09/03 07:00:51;;;;;;;6.53;3.67;;;19.70;92.10;;;;;;6156303;23;20482;-91
2022/09/03 07:03:18;;;;;;;5.40;3.83;;;19.80;92.10;;;;;;6156759;23;20473;-91
2022/09/03 07:05:45;;;;;;;3.50;3.10;;;19.90;92.10;;;;;;6157230;23;20410;-90
2022/09/03 07:08:13;;;;;;;4.00;3.70;;;19.90;92.00;;;;;;6156655;23;20407;-90
2022/09/03 07:10:42;;;;;;;5.10;3.20;;;20.00;91.80;;;;;;6156399;23;20407;-90
2022/09/03 07:13:09;;;;;;;4.03;3.73;;;20.10;91.80;;;;;;6159372;23;20773;-90
2022/09/03 07:15:35;;;;;;;5.50;3.80;;;20.30;91.50;;;;;;6174603;23;20402;-90
2022/09/03 07:18:02;;;;;;;7.37;3.77;;;20.30;91.20;;;;;;6164823;23;20407;-90
2022/09/03 07:20:29;;;;;;;4.70;3.87;;;20.30;91.30;;;;;;6160001;23;20439;-90
2022/09/03 07:22:56;;;;;;;5.00;4.60;;;20.30;91.40;;;;;;6156073;23;20768;-90
2022/09/03 07:25:27;;;;;;;4.80;4.30;;;20.50;91.50;;;;;;6155650;23;20407;-90
2022/09/03 07:27:54;;;;;;;4.93;3.27;;;20.50;91.20;;;;;;6168852;23;20431;-87
2022/09/03 07:30:21;;;;;;;3.80;3.40;;;20.60;90.90;;;;;;6181134;23;20384;-87
2022/09/03 07:32:50;;;;;;;3.90;3.50;;;20.70;90.90;;;;;;6177388;23;20394;-88
2022/09/03 07:35:18;;;;;;;6.17;3.60;;;20.70;90.80;;;;;;6173392;23;20792;-88
2022/09/03 07:37:44;;;;;;;4.27;3.37;;;20.70;90.90;;;;;;6159571;23;20922;-87
2022/09/03 07:40:12;;;;;;;4.33;3.67;;;20.60;91.00;;;;;;6169172;23;20439;-87
2022/09/03 07:42:40;;;;;;;4.27;3.90;;;20.70;91.20;;;;;;6179994;23;20420;-87
2022/09/03 07:45:09;;;;;;;5.73;4.03;;;20.90;90.90;;;;;;6179872;23;20416;-87
2022/09/03 07:47:36;;;;;;;4.40;3.70;;;21.00;90.70;;;;;;6175046;23;20431;-87
2022/09/03 07:50:04;;;;;;;4.63;3.30;;;21.40;90.50;;;;;;6158214;23;20466;-87
2022/09/03 07:52:30;;;;;;;3.70;3.40;;;21.60;89.50;;;;;;6156731;23;20395;-87
2022/09/03 07:54:58;;;;;;;5.60;3.47;;;21.70;89.70;;;;;;6153861;23;20404;-87
2022/09/03 07:57:24;;;;;;;4.90;3.70;;;22.00;88.10;;;;;;6168067;23;20412;-86
2022/09/03 07:59:52;;;;;;;5.03;4.53;;;22.30;87.10;;;;;;6179044;23;20393;-86
2022/09/03 08:02:19;;;;;;;5.17;3.67;;;22.70;85.70;;;;;;6178059;23;20407;-87
2022/09/03 08:04:46;;;;;;;4.13;3.73;;;23.10;84.80;;;;;;6157916;23;20437;-88
2022/09/03 08:07:12;;;;;;;6.23;4.97;;;23.30;83.90;;;;;;6155563;23;20800;-78
2022/09/03 08:09:39;;;;;;;7.70;3.83;;;23.40;82.80;;;;;;6152380;23;20925;-78
2022/09/03 08:12:06;;;;;;;4.03;3.63;;;23.30;83.50;;;;;;6152562;23;20874;-79
2022/09/03 08:14:33;;;;;;;4.13;3.83;;;23.20;83.50;;;;;;6151562;23;20412;-79
2022/09/03 08:17:01;;;;;;;5.50;3.97;;;23.10;84.20;;;;;;6152408;23;20428;-78
2022/09/03 08:19:27;;;;;;;4.30;3.90;;;22.90;85.70;;;;;;6152160;23;20811;-78
2022/09/03 08:21:54;;;;;;;6.33;3.70;;;22.80;86.30;;;;;;6152639;23;21003;-78
2022/09/03 08:24:23;;;;;;;5.00;4.00;;;22.90;86.40;;;;;;6152829;23;20458;-78
2022/09/03 08:26:50;;;;;;;5.03;3.77;;;22.80;86.70;;;;;;6152372;23;20434;-78
2022/09/03 08:29:17;;;;;;;5.27;3.77;;;22.90;86.60;;;;;;6152382;23;20387;-79
2022/09/03 08:31:44;;;;;;;4.93;4.20;;;23.20;85.80;;;;;;6154049;23;20399;-79
2022/09/03 08:34:13;;;;;;;8.10;3.87;;;23.50;84.60;;;;;;6156391;23;20412;-79
2022/09/03 08:36:41;;;;;;;5.70;5.20;;;23.70;83.10;;;;;;6155030;23;20790;-78
2022/09/03 08:39:09;;;;;;;7.43;4.03;;;23.70;83.60;;;;;;6155463;23;20404;-79
2022/09/03 08:41:48;;;;;;;4.73;3.90;;;24.40;82.80;;;;;;6155306;23;20427;-79
2022/09/03 08:44:23;;;;;;;8.30;4.10;;;24.80;80.30;;;;;;6157083;23;20779;-79
2022/09/03 08:46:53;;;;;;;6.67;4.30;;;25.00;79.50;;;;;;6154733;23;20428;-78
2022/09/03 08:49:26;;;;;;;5.10;4.70;;;25.20;78.60;;;;;;6155354;23;20485;-78
2022/09/03 08:51:56;;;;;;;4.87;4.37;;;25.50;78.00;;;;;;6155008;23;20461;-78
2022/09/03 08:54:27;;;;;;;4.80;4.30;;;25.90;76.40;;;;;;6154788;23;20411;-79
2022/09/03 08:56:55;;;;;;;6.57;4.57;;;26.00;75.40;;;;;;6153870;23;20433;-79
2022/09/03 08:59:22;;;;;;;4.17;3.77;;;25.90;74.90;;;;;;6155088;23;20409;-79
2022/09/03 09:01:56;;;;;;;4.57;3.93;;;25.60;75.90;;;;;;6156103;23;20427;-78
2022/09/03 09:04:37;;;;;;;4.60;4.20;;;25.80;76.10;;;;;;6156893;23;20401;-79
2022/09/03 09:07:10;;;;;;;5.40;4.50;;;26.10;75.40;;;;;;6154996;23;20505;-79
2022/09/03 09:09:47;;;;;;;4.50;4.10;;;26.10;74.60;;;;;;6156069;23;20444;-79
2022/09/03 09:12:28;;;;;;;3.87;3.33;;;26.50;73.30;;;;;;6155447;23;20477;-79
2022/09/03 09:15:05;;;;;;;5.30;4.20;;;26.50;73.00;;;;;;6154890;23;20395;-79
2022/09/03 09:17:51;;;;;;;4.70;4.30;;;26.20;73.20;;;;;;6153534;23;20441;-79
2022/09/03 09:20:26;;;;;;;4.77;4.30;;;26.50;73.40;;;;;;6155133;23;20757;-79
2022/09/03 09:22:57;;;;;;;4.43;4.10;;;26.50;72.90;;;;;;6154566;23;20885;-79
2022/09/03 09:25:25;;;;;;;4.23;3.83;;;26.60;72.60;;;;;;6153757;23;21090;-79
2022/09/03 09:27:59;;;;;;;6.23;5.67;;;26.40;72.50;;;;;;6176732;23;20439;-84
2022/09/03 09:30:27;;;;;;;4.00;3.60;;;26.10;72.50;;;;;;6164820;23;20391;-88
2022/09/03 09:32:54;;;;;;;4.30;3.90;;;25.60;73.40;;;;;;6165405;23;20837;-88
2022/09/03 09:35:23;;;;;;;4.33;3.93;;;25.30;74.90;;;;;;6177745;23;20405;-86
2022/09/03 09:37:51;;;;;;;5.23;4.50;;;25.10;76.20;;;;;;6175496;23;20436;-86
2022/09/03 09:40:31;;;;;;;3.90;3.60;;;25.10;77.90;;;;;;6179205;23;20416;-87
2022/09/03 09:43:09;;;;;;;4.47;4.07;;;25.30;76.90;;;;;;6161653;23;20401;-86
2022/09/03 09:45:39;;;;;;;4.20;3.80;;;27.70;73.20;;;;;;6155627;23;20890;-85
2022/09/03 09:48:13;;;;;;;4.00;3.60;;;31.00;62.40;;;;;;6173509;23;20483;-86
2022/09/03 09:50:41;;;;;;;3.70;3.40;;;32.90;55.90;;;;;;6172955;23;20409;-85
2022/09/03 09:53:14;;;;;;;5.00;3.90;;;33.60;52.30;;;;;;6159978;23;20402;-85
2022/09/03 09:56:02;;;;;;;3.93;3.40;;;34.80;49.70;;;;;;6160063;23;20482;-89
2022/09/03 09:58:31;;;;;;;3.97;3.27;;;37.20;46.50;;;;;;6159725;23;20401;-85
2022/09/03 10:01:12;;;;;;;3.77;3.37;;;38.60;43.00;;;;;;6158553;23;20446;-87
2022/09/03 10:03:48;;;;;;;3.90;3.60;;;37.50;41.70;;;;;;6161304;23;20465;-86
2022/09/03 10:09:09;;;;;;;4.00;3.70;;;34.00;46.50;;;;;;6154650;23;20384;-89
2022/09/03 10:11:39;;;;;;;3.50;3.20;;;32.80;48.10;;;;;;6153698;23;21008;-88
2022/09/03 10:14:13;;;;;;;4.10;3.60;;;32.30;49.10;;;;;;6154925;23;20452;-87
2022/09/03 10:16:47;;;;;;;4.20;3.20;;;31.40;50.80;;;;;;6155065;23;20485;-88
2022/09/03 10:19:19;;;;;;;3.90;3.60;;;31.00;52.00;;;;;;6161837;23;20426;-88
2022/09/03 10:21:53;;;;;;;5.30;3.93;;;30.70;52.40;;;;;;6157224;23;20429;-89
2022/09/03 10:24:38;;;;;;;5.53;3.57;;;30.30;53.20;;;;;;6153421;23;20403;-89
2022/09/03 10:27:09;;;;;;;5.20;3.40;;;29.80;54.30;;;;;;6153454;23;20760;-88
2022/09/03 10:29:36;;;;;;;4.17;3.77;;;29.90;54.50;;;;;;6154583;23;20463;-89
2022/09/03 10:32:21;;;;;;;4.47;3.40;;;29.90;54.40;;;;;;6153673;23;20399;-89
2022/09/03 10:34:55;;;;;;;4.23;3.90;;;30.00;54.50;;;;;;6153368;23;20451;-91
2022/09/03 10:37:32;;;;;;;6.23;3.83;;;30.10;54.00;;;;;;6151038;23;20485;-82
2022/09/03 10:40:10;;;;;;;5.20;3.60;;;30.30;53.70;;;;;;6167325;23;20390;-81
2022/09/03 10:42:44;;;;;;;3.80;3.50;;;30.20;53.40;;;;;;6177867;23;20428;-81
2022/09/03 10:45:23;;;;;;;3.87;3.57;;;29.20;55.20;;;;;;6167378;23;20463;-83
2022/09/03 10:48:07;;;;;;;5.47;3.63;;;29.00;55.90;;;;;;6161012;23;20514;-82
2022/09/03 10:50:44;;;;;;;3.53;3.30;;;29.10;55.60;;;;;;6161024;23;20571;-83
2022/09/03 10:53:26;;;;;;;6.20;3.63;;;29.40;55.40;;;;;;6161011;23;20393;-81
2022/09/03 10:55:58;;;;;;;3.53;3.23;;;30.30;54.40;;;;;;6159878;23;20395;-81
2022/09/03 10:58:40;;;;;;;3.50;3.20;;;30.40;53.70;;;;;;6161122;23;20421;-82
2022/09/03 11:01:20;;;;;;;3.93;3.63;;;30.20;53.70;;;;;;6160748;23;20961;-83
2022/09/03 11:03:50;;;;;;;4.57;4.23;;;30.80;53.40;;;;;;6160204;23;20441;-82
2022/09/03 11:06:23;;;;;;;4.70;4.30;;;31.90;51.50;;;;;;6180648;23;20411;-81
2022/09/03 11:08:58;;;;;;;3.97;3.57;;;32.30;50.50;;;;;;6177185;23;20432;-82
2022/09/03 11:11:33;;;;;;;4.13;3.83;;;32.40;50.10;;;;;;6162239;23;20420;-83
2022/09/03 11:14:06;;;;;;;3.50;3.20;;;32.10;49.80;;;;;;6161548;23;20401;-83
2022/09/03 11:16:37;;;;;;;6.33;4.27;;;31.40;51.10;;;;;;6165764;23;20377;-81
2022/09/03 11:19:09;;;;;;;5.10;3.57;;;30.40;52.20;;;;;;6163632;23;20415;-83
2022/09/03 11:21:40;;;;;;;3.93;3.63;;;29.60;54.50;;;;;;6161411;23;20438;-82
2022/09/03 11:24:13;;;;;;;4.30;3.87;;;29.10;55.40;;;;;;6160900;23;20391;-84
2022/09/03 11:26:44;;;;;;;4.27;3.67;;;28.80;56.10;;;;;;6159117;23;21254;-82
2022/09/03 11:29:16;;;;;;;4.20;3.80;;;28.40;57.10;;;;;;6162533;23;20411;-86
2022/09/03 11:31:56;;;;;;;4.77;4.37;;;28.20;57.70;;;;;;6170020;23;20850;-86
2022/09/03 11:34:29;;;;;;;5.90;4.00;;;28.10;58.20;;;;;;6159010;23;20425;-87
2022/09/03 11:37:07;;;;;;;5.33;4.17;;;27.90;58.70;;;;;;6149841;23;21024;-87
2022/09/03 11:39:38;;;;;;;5.37;4.87;;;27.20;59.90;;;;;;6126348;23;20414;-87
2022/09/03 11:42:11;;;;;;;4.17;3.80;;;26.80;61.30;;;;;;6126260;23;20436;-86
2022/09/03 11:44:39;;;;;;;4.90;4.50;;;26.70;63.30;;;;;;6148019;23;20416;-85
2022/09/03 11:47:21;;;;;;;4.70;4.30;;;26.50;62.70;;;;;;6148315;23;20927;-86
2022/09/03 11:49:49;;;;;;;6.10;4.77;;;26.40;63.60;;;;;;6130470;23;20393;-83
2022/09/03 11:52:27;;;;;;;5.43;4.83;;;26.30;64.80;;;;;;6134154;23;20436;-86
2022/09/03 11:54:55;;;;;;;7.93;5.13;;;26.10;65.20;;;;;;6126556;23;20400;-87
2022/09/03 11:57:27;;;;;;;4.27;3.97;;;26.00;65.60;;;;;;6125633;23;20436;-86
2022/09/03 11:59:54;;;;;;;4.80;4.40;;;25.80;66.70;;;;;;6126483;23;20495;-86
2022/09/03 12:02:27;;;;;;;4.70;4.30;;;25.60;67.90;;;;;;6126503;23;20477;-87
2022/09/03 12:05:20;;;;;;;4.50;4.20;;;25.50;68.30;;;;;;6128254;23;20397;-87
2022/09/03 12:08:13;;;;;;;6.00;4.47;;;25.20;70.50;;;;;;6125553;23;20435;-85
2022/09/03 12:10:50;;;;;;;5.80;5.00;;;24.90;70.80;;;;;;6150231;23;20393;-85
2022/09/03 12:13:26;;;;;;;4.80;4.50;;;24.70;72.20;;;;;;6150296;23;20387;-84
2022/09/03 12:16:16;;;;;;;5.50;5.00;;;24.60;73.30;;;;;;6133746;23;20453;-85
2022/09/03 12:18:44;;;;;;;5.40;5.00;;;24.40;74.80;;;;;;6104743;23;20513;-85
2022/09/03 12:21:12;;;;;;;5.10;4.60;;;24.20;75.90;;;;;;6128383;23;20444;-84
2022/09/03 12:23:42;;;;;;;5.07;4.67;;;24.10;76.70;;;;;;6131210;23;20436;-87
2022/09/03 12:26:13;;;;;;;5.20;4.80;;;23.90;78.10;;;;;;6131617;23;20440;-84
2022/09/03 12:28:42;;;;;;;5.20;4.70;;;23.80;79.50;;;;;;6130561;23;20432;-84
2022/09/03 12:31:20;;;;;;;7.70;5.43;;;23.70;80.90;;;;;;6127615;23;20468;-83
2022/09/03 12:33:50;;;;;;;6.43;5.93;;;23.60;82.60;;;;;;6131562;23;21041;-85
2022/09/03 12:36:17;;;;;;;5.73;5.23;;;23.50;83.90;;;;;;6131234;23;20504;-86
2022/09/03 12:38:46;;;;;;;5.43;5.00;;;23.50;85.00;;;;;;6127931;23;20468;-87
2022/09/03 12:41:31;;;;;;;5.00;4.20;;;23.40;87.00;;;;;;6128288;23;20418;-90
2022/09/03 12:44:01;;;;;;;6.93;3.70;;;22.60;90.60;;;;;;6147550;23;20451;-84
2022/09/03 12:46:29;;;;;;;6.20;3.47;;;22.30;93.00;;;;;;6152860;23;20377;-86
2022/09/03 12:49:02;;;;;;;4.60;4.07;;;22.00;93.60;;;;;;6151042;23;20404;-87
2022/09/03 12:51:32;;;;;;;4.70;3.47;;;22.00;96.10;;;;;;6133013;23;20384;-83
2022/09/03 12:54:00;;;;;;;4.00;3.20;;;21.80;98.60;;;;;;6142784;23;20404;-85
2022/09/03 12:56:32;;;;;;;5.10;3.03;;;21.40;99.90;;;;;;6130941;23;20466;-83
2022/09/03 12:59:05;;;;;;;3.77;3.43;;;21.30;99.90;;;;;;6132740;23;20392;-84
2022/09/03 13:01:37;;;;;;;5.47;3.20;;;21.30;99.90;;;;;;6145080;23;20488;-83
2022/09/03 13:04:09;;;;;;;4.30;3.40;;;21.20;99.90;;;;;;6142181;23;20399;-85
2022/09/03 13:06:48;;;;;;;4.63;4.20;;;21.00;99.90;;;;;;6129647;23;20396;-85
2022/09/03 13:09:18;;;;;;;6.67;3.60;;;20.80;99.90;;;;;;6129505;23;20422;-86
2022/09/03 13:11:45;;;;;;;5.30;4.00;;;20.60;99.90;;;;;;6129702;23;20503;-85